Time;durP1;ratioP1;P1;durP2;ratioP2;P2;SDS_P1;SDS_P2;PMS_P1;PMS_P2;Temp;Humidity;BMP_temperature;BMP_pressure;BME280_temperature;BME280_humidity;BME280_pressure;Samples;Min_cycle;Max_cycle;Signal;HPM_P1;HPM_P2
2023/12/01 00:01:08;;;;;;;0.50;0.20;;;;;;;7.05;86.93;94017.45;106938;1274;22599;-76
2023/12/01 00:03:48;;;;;;;0.20;0.20;;;;;;;7.01;86.81;94017.91;106863;1274;22525;-78
2023/12/01 00:06:16;;;;;;;0.40;0.20;;;;;;;7.05;86.74;94020.60;106910;1264;22510;-78
2023/12/01 00:08:45;;;;;;;0.20;0.20;;;;;;;6.79;85.66;94024.33;106808;1273;25287;-78
2023/12/01 00:11:13;;;;;;;0.40;0.20;;;;;;;6.85;87.78;94024.84;106839;1273;22763;-80
2023/12/01 00:13:42;;;;;;;0.40;0.30;;;;;;;7.17;87.25;94024.77;106819;1273;22517;-77
2023/12/01 00:16:10;;;;;;;0.20;0.20;;;;;;;7.43;86.17;94023.96;106680;1274;22527;-78
2023/12/01 00:18:38;;;;;;;0.80;0.40;;;;;;;7.50;86.01;94028.30;106874;1274;24379;-78
2023/12/01 00:21:06;;;;;;;0.30;0.30;;;;;;;7.51;85.99;94020.39;106788;1274;23125;-78
2023/12/01 00:23:35;;;;;;;0.20;0.20;;;;;;;7.62;86.14;94025.81;107015;1273;25403;-79
2023/12/01 00:26:03;;;;;;;0.30;0.30;;;;;;;7.70;85.63;94029.56;106895;1274;24215;-78
2023/12/01 00:28:31;;;;;;;0.20;0.20;;;;;;;7.61;85.31;94025.67;106781;1274;26635;-78
2023/12/01 00:31:00;;;;;;;0.60;0.50;;;;;;;7.44;85.29;94025.86;106879;1274;25494;-79
2023/12/01 00:33:28;;;;;;;0.40;0.30;;;;;;;7.31;85.57;94019.64;106897;1267;22661;-79
2023/12/01 00:35:56;;;;;;;0.50;0.30;;;;;;;7.21;86.07;94014.33;106796;1273;25588;-78
2023/12/01 00:38:25;;;;;;;0.50;0.30;;;;;;;7.32;87.30;94019.25;106820;1274;22664;-78
2023/12/01 00:40:54;;;;;;;0.30;0.20;;;;;;;7.51;86.89;94023.17;106778;1274;22533;-79
2023/12/01 00:43:22;;;;;;;0.30;0.30;;;;;;;7.59;86.73;94026.60;106834;1273;25560;-78
2023/12/01 00:45:50;;;;;;;0.50;0.30;;;;;;;7.70;86.66;94029.04;106620;1274;22576;-79
2023/12/01 00:48:19;;;;;;;0.10;0.10;;;;;;;7.71;86.50;94026.91;106994;1273;23878;-79
2023/12/01 00:50:47;;;;;;;0.50;0.30;;;;;;;7.72;86.55;94023.89;106715;1275;22648;-77
2023/12/01 00:53:15;;;;;;;1.00;0.40;;;;;;;7.72;86.82;94020.94;106983;1254;25628;-77
2023/12/01 00:55:44;;;;;;;1.30;0.40;;;;;;;7.71;86.68;94023.59;107103;1274;22527;-77
2023/12/01 00:58:12;;;;;;;0.40;0.30;;;;;;;7.67;87.02;94036.49;106850;1275;24231;-77
2023/12/01 01:00:40;;;;;;;1.60;0.30;;;;;;;7.73;87.62;94026.88;106774;1275;22528;-76
2023/12/01 01:03:08;;;;;;;0.40;0.40;;;;;;;7.68;87.49;94031.40;106632;1275;22629;-76
2023/12/01 01:05:37;;;;;;;0.90;0.50;;;;;;;7.63;87.99;94052.55;106769;1275;25277;-77
2023/12/01 01:08:05;;;;;;;0.60;0.30;;;;;;;7.67;88.12;94042.63;106662;1275;22561;-77
2023/12/01 01:10:33;;;;;;;0.70;0.30;;;;;;;7.59;87.37;94042.38;106726;1275;24241;-80
2023/12/01 01:13:02;;;;;;;0.40;0.40;;;;;;;7.46;87.97;94046.61;106742;1275;24385;-78
2023/12/01 01:15:30;;;;;;;0.30;0.30;;;;;;;7.45;88.53;94060.11;106756;1274;25349;-77
2023/12/01 01:17:59;;;;;;;0.20;0.20;;;;;;;7.51;89.22;94059.23;106706;1275;25491;-78
2023/12/01 01:20:27;;;;;;;1.70;0.30;;;;;;;7.48;88.19;94059.50;106756;1274;22628;-77
2023/12/01 01:22:55;;;;;;;0.30;0.30;;;;;;;7.56;89.43;94065.88;106654;1274;24259;-78
2023/12/01 01:25:23;;;;;;;0.20;0.20;;;;;;;7.58;88.66;94060.22;106818;1274;24244;-77
2023/12/01 01:27:51;;;;;;;0.20;0.20;;;;;;;7.48;88.21;94066.65;106936;1254;24219;-77
2023/12/01 01:30:20;;;;;;;0.40;0.40;;;;;;;7.29;87.50;94060.77;106794;1275;22530;-77
2023/12/01 01:32:48;;;;;;;0.20;0.20;;;;;;;7.08;87.52;94067.70;106647;1275;25418;-77
2023/12/01 01:35:16;;;;;;;0.20;0.20;;;;;;;6.85;87.82;94067.52;106453;1275;22541;-77
2023/12/01 01:37:45;;;;;;;0.20;0.20;;;;;;;6.89;90.90;94049.04;106879;1275;25271;-78
2023/12/01 01:40:14;;;;;;;1.00;0.50;;;;;;;6.95;91.15;94047.80;106724;1274;25370;-79
2023/12/01 01:42:43;;;;;;;0.20;0.20;;;;;;;7.14;91.75;94046.38;106710;1274;24373;-78
2023/12/01 01:45:11;;;;;;;0.70;0.30;;;;;;;7.21;90.47;94052.10;106614;1275;24305;-78
2023/12/01 01:47:39;;;;;;;0.20;0.20;;;;;;;7.15;90.48;94056.32;106616;1275;22569;-77
2023/12/01 01:50:08;;;;;;;0.50;0.30;;;;;;;7.27;91.57;94052.11;106655;1274;22571;-78
2023/12/01 01:52:38;;;;;;;1.20;0.40;;;;;;;7.40;91.70;94049.95;106749;1274;22520;-79
2023/12/01 01:55:08;;;;;;;0.70;0.50;;;;;;;7.53;91.02;94040.80;106763;1274;24227;-77
2023/12/01 01:57:42;;;;;;;0.90;0.50;;;;;;;7.72;90.70;94047.55;106785;1274;25502;-78
2023/12/01 02:00:19;;;;;;;1.40;0.40;;;;;;;7.81;89.88;94042.01;106856;1274;22618;-78
2023/12/01 02:02:47;;;;;;;0.60;0.30;;;;;;;7.81;89.79;94045.49;106932;1275;22521;-78
2023/12/01 02:05:15;;;;;;;1.80;0.40;;;;;;;7.83;89.31;94044.36;106750;1274;25369;-78
2023/12/01 02:07:44;;;;;;;1.40;0.50;;;;;;;7.86;89.34;94033.41;106769;1266;22517;-79
2023/12/01 02:10:15;;;;;;;0.60;0.30;;;;;;;7.90;89.39;94035.73;106767;1275;25363;-78
2023/12/01 02:12:45;;;;;;;0.40;0.30;;;;;;;7.97;89.60;94039.18;106809;1275;22576;-78
2023/12/01 02:15:13;;;;;;;0.30;0.30;;;;;;;8.07;89.26;94036.04;106653;1275;24226;-79
2023/12/01 02:17:42;;;;;;;1.30;0.50;;;;;;;8.09;88.63;94030.75;106795;1274;25340;-78
2023/12/01 02:20:14;;;;;;;0.30;0.30;;;;;;;8.03;88.60;94041.26;106918;1275;22530;-78
2023/12/01 02:22:44;;;;;;;0.40;0.40;;;;;;;8.02;88.91;94045.66;106916;1275;25252;-78
2023/12/01 02:25:14;;;;;;;0.30;0.30;;;;;;;7.95;88.46;94041.72;107100;1275;22517;-79
2023/12/01 02:27:42;;;;;;;0.30;0.30;;;;;;;7.82;88.93;94037.56;106882;1275;22521;-78
2023/12/01 02:30:11;;;;;;;0.30;0.30;;;;;;;7.84;89.96;94025.27;107033;1274;25239;-78
2023/12/01 02:32:39;;;;;;;0.40;0.40;;;;;;;7.91;89.65;94025.56;106762;1274;23873;-77
2023/12/01 02:35:09;;;;;;;0.30;0.30;;;;;;;8.00;89.69;94025.05;106890;1274;25521;-77
2023/12/01 02:37:38;;;;;;;0.80;0.40;;;;;;;8.06;89.45;94039.59;106751;1272;24250;-78
2023/12/01 02:40:14;;;;;;;3.10;0.50;;;;;;;8.04;88.95;94035.47;106766;1275;24215;-76
2023/12/01 02:42:55;;;;;;;0.90;0.30;;;;;;;8.00;89.33;94037.67;106659;1274;22515;-78
2023/12/01 02:45:23;;;;;;;0.30;0.20;;;;;;;8.07;89.67;94043.58;106752;1274;23931;-78
2023/12/01 02:47:51;;;;;;;0.50;0.30;;;;;;;8.14;89.07;94043.52;106679;1274;22531;-79
2023/12/01 02:50:20;;;;;;;0.20;0.20;;;;;;;8.06;88.47;94042.02;106871;1274;23167;-79
2023/12/01 02:52:48;;;;;;;0.30;0.30;;;;;;;8.01;88.90;94046.05;106900;1274;22750;-77
2023/12/01 02:55:16;;;;;;;1.10;0.50;;;;;;;7.92;88.60;94046.35;106961;1274;22968;-78
2023/12/01 02:57:44;;;;;;;1.20;0.60;;;;;;;7.80;88.24;94039.59;106761;1274;25357;-78
2023/12/01 03:00:13;;;;;;;1.00;0.40;;;;;;;7.63;88.20;94032.06;106998;1274;22466;-78
2023/12/01 03:02:44;;;;;;;1.00;0.60;;;;;;;7.47;89.02;94028.05;107123;1274;22547;-79
2023/12/01 03:05:12;;;;;;;2.70;0.90;;;;;;;7.36;89.17;94022.77;106915;1275;23108;-78
2023/12/01 03:07:41;;;;;;;1.10;0.50;;;;;;;7.24;89.42;94040.64;106779;1274;22524;-80
2023/12/01 03:10:10;;;;;;;7.60;6.00;;;;;;;7.11;88.58;94042.26;106818;1274;24459;-80
2023/12/01 03:12:40;;;;;;;9.60;6.40;;;;;;;6.77;83.48;94058.30;106886;1273;22517;-77
2023/12/01 03:15:11;;;;;;;8.40;5.70;;;;;;;6.33;83.41;94061.41;106987;1274;22623;-78
2023/12/01 03:17:40;;;;;;;8.90;6.10;;;;;;;5.79;83.27;94055.83;106769;1274;24418;-78
2023/12/01 03:20:10;;;;;;;9.50;6.50;;;;;;;5.48;84.04;94040.00;106873;1274;22511;-78
2023/12/01 03:22:41;;;;;;;9.40;6.80;;;;;;;5.10;84.02;94050.81;106681;1273;24776;-78
2023/12/01 03:25:11;;;;;;;13.40;8.80;;;;;;;4.74;83.82;94067.61;106700;1274;22696;-78
2023/12/01 03:27:42;;;;;;;10.60;7.40;;;;;;;4.36;83.91;94065.23;106766;1274;25351;-78
2023/12/01 03:30:16;;;;;;;11.10;7.30;;;;;;;4.00;84.55;94059.46;106751;1272;25243;-78
2023/12/01 03:32:46;;;;;;;13.60;8.50;;;;;;;3.73;85.99;94068.46;106912;1274;22634;-78
2023/12/01 03:35:20;;;;;;;14.00;8.50;;;;;;;3.57;86.62;94065.25;106855;1273;22640;-78
2023/12/01 03:37:55;;;;;;;13.50;8.00;;;;;;;3.43;86.99;94075.02;106880;1274;24224;-78
2023/12/01 03:40:27;;;;;;;13.60;7.30;;;;;;;3.30;86.65;94079.05;106889;1263;23510;-76
2023/12/01 03:42:55;;;;;;;11.80;7.60;;;;;;;3.12;87.13;94089.55;106790;1274;22630;-80
2023/12/01 03:45:24;;;;;;;13.50;7.60;;;;;;;2.98;87.28;94110.95;106676;1274;22520;-78
2023/12/01 03:47:52;;;;;;;12.10;7.70;;;;;;;2.89;87.52;94130.00;106643;1273;22544;-78
2023/12/01 03:50:21;;;;;;;12.00;7.80;;;;;;;2.85;87.82;94132.14;106857;1274;24086;-79
2023/12/01 03:52:51;;;;;;;11.10;6.80;;;;;;;2.79;88.32;94133.95;106858;1274;23758;-79
2023/12/01 03:55:20;;;;;;;11.00;7.30;;;;;;;2.77;88.77;94128.23;106701;1274;22640;-79
2023/12/01 03:57:48;;;;;;;10.30;6.70;;;;;;;2.78;89.06;94123.54;106883;1258;25482;-79
2023/12/01 04:00:18;;;;;;;81.30;36.30;;;;;;;2.72;89.42;94118.77;106813;1274;22626;-78
2023/12/01 04:02:48;;;;;;;44.50;21.90;;;;;;;2.69;89.28;94121.73;106856;1274;22520;-79
2023/12/01 04:05:19;;;;;;;27.90;14.00;;;;;;;2.69;89.46;94118.45;106891;1274;25348;-79
2023/12/01 04:07:52;;;;;;;16.30;11.00;;;;;;;2.65;89.06;94112.42;106873;1274;22523;-78
2023/12/01 04:10:25;;;;;;;11.90;7.60;;;;;;;2.60;89.23;94118.89;106807;1274;22537;-80
2023/12/01 04:13:05;;;;;;;12.30;6.70;;;;;;;2.55;89.25;94126.95;106819;1274;24368;-79
2023/12/01 04:15:39;;;;;;;10.50;7.00;;;;;;;2.54;89.32;94138.73;106821;1274;25424;-79
2023/12/01 04:18:07;;;;;;;10.10;6.70;;;;;;;2.46;88.64;94144.23;106820;1274;22524;-79
2023/12/01 04:20:38;;;;;;;11.60;7.10;;;;;;;2.35;88.34;94141.21;106866;1273;22530;-78
2023/12/01 04:23:10;;;;;;;11.40;6.60;;;;;;;2.27;88.47;94146.84;106698;1274;25411;-78
2023/12/01 04:25:40;;;;;;;6.90;4.40;;;;;;;2.16;88.33;94143.14;106749;1274;22553;-78
2023/12/01 04:28:08;;;;;;;8.40;5.40;;;;;;;1.99;88.54;94140.87;106849;1273;24272;-78
2023/12/01 04:30:36;;;;;;;10.50;6.50;;;;;;;1.90;88.99;94145.45;106820;1274;25220;-77
2023/12/01 04:33:05;;;;;;;13.80;8.20;;;;;;;1.78;89.16;94152.67;106685;1274;22510;-78
2023/12/01 04:35:35;;;;;;;22.60;11.40;;;;;;;1.69;89.70;94159.33;106734;1273;22529;-78
2023/12/01 04:38:03;;;;;;;18.70;10.10;;;;;;;1.61;90.09;94158.70;106836;1274;22633;-78
2023/12/01 04:40:32;;;;;;;17.80;9.40;;;;;;;1.58;90.18;94166.86;106849;1274;22535;-76
2023/12/01 04:43:01;;;;;;;20.60;11.90;;;;;;;1.52;89.86;94168.63;106858;1274;22518;-78
2023/12/01 04:45:33;;;;;;;30.60;14.50;;;;;;;1.53;90.41;94160.66;106970;1272;22520;-77
2023/12/01 04:48:01;;;;;;;10.00;5.80;;;;;;;1.51;90.33;94168.46;106719;1274;22636;-77
2023/12/01 04:50:31;;;;;;;38.40;18.20;;;;;;;1.45;90.54;94158.64;106825;1274;25277;-79
2023/12/01 04:53:00;;;;;;;15.20;9.00;;;;;;;1.41;90.98;94158.48;107006;1274;25463;-78
2023/12/01 04:55:30;;;;;;;9.70;5.30;;;;;;;1.42;90.65;94166.45;106903;1271;22514;-78
2023/12/01 04:57:58;;;;;;;8.90;5.50;;;;;;;1.41;90.43;94168.89;106825;1260;24403;-78
2023/12/01 05:00:27;;;;;;;7.80;5.10;;;;;;;1.43;91.02;94179.96;107048;1274;22524;-78
2023/12/01 05:02:56;;;;;;;6.20;5.10;;;;;;;1.46;90.97;94196.23;107040;1274;22504;-78
2023/12/01 05:05:26;;;;;;;6.20;4.20;;;;;;;1.49;90.84;94196.04;106669;1274;22531;-78
2023/12/01 05:07:59;;;;;;;5.00;3.70;;;;;;;1.46;90.34;94204.02;106703;1274;24362;-78
2023/12/01 05:10:29;;;;;;;;;;;;;;;1.43;90.68;94200.58;106827;1274;22510;-78
2023/12/01 05:13:00;;;;;;;6.10;3.80;;;;;;;1.45;90.49;94208.54;107065;1274;25489;-77
2023/12/01 05:15:31;;;;;;;15.20;7.90;;;;;;;1.43;90.49;94216.01;106891;1274;25363;-79
2023/12/01 05:18:07;;;;;;;8.90;5.70;;;;;;;1.41;90.81;94208.90;106828;1273;22521;-78
2023/12/01 05:20:36;;;;;;;5.40;3.50;;;;;;;1.42;90.54;94215.83;106864;1250;22526;-77
2023/12/01 05:23:09;;;;;;;6.20;3.80;;;;;;;1.39;90.31;94217.76;106787;1274;25485;-77
2023/12/01 05:25:41;;;;;;;5.10;3.50;;;;;;;1.40;90.41;94218.79;106800;1273;24257;-78
2023/12/01 05:28:11;;;;;;;14.00;8.40;;;;;;;1.37;91.35;94212.58;106682;1275;22527;-78
2023/12/01 05:30:43;;;;;;;21.20;11.20;;;;;;;1.43;91.57;94217.04;106825;1273;25362;-77
2023/12/01 05:33:11;;;;;;;7.90;4.90;;;;;;;1.51;91.56;94228.25;106820;1274;22881;-78
2023/12/01 05:35:42;;;;;;;8.60;5.60;;;;;;;1.55;91.38;94226.67;106831;1273;22725;-77
2023/12/01 05:38:11;;;;;;;5.50;4.30;;;;;;;1.63;91.28;94229.05;106808;1273;25294;-78
2023/12/01 05:40:39;;;;;;;6.50;4.20;;;;;;;1.62;90.82;94228.54;106790;1274;22679;-77
2023/12/01 05:43:08;;;;;;;5.60;4.00;;;;;;;1.64;90.71;94229.56;106900;1274;24276;-78
2023/12/01 05:45:36;;;;;;;5.90;4.10;;;;;;;1.66;90.71;94228.17;106835;1274;23916;-77
2023/12/01 05:48:09;;;;;;;5.10;3.70;;;;;;;1.73;91.04;94242.85;106834;1274;24244;-77
2023/12/01 05:50:41;;;;;;;5.70;3.60;;;;;;;1.72;90.77;94228.13;106818;1274;22608;-78
2023/12/01 05:53:11;;;;;;;10.90;5.70;;;;;;;1.72;90.77;94215.11;106875;1274;23334;-78
2023/12/01 05:55:40;;;;;;;15.90;8.80;;;;;;;1.73;91.24;94213.55;106823;1274;22524;-77
2023/12/01 05:58:12;;;;;;;13.60;8.00;;;;;;;1.83;91.55;94224.58;106811;1273;22524;-77
2023/12/01 06:00:41;;;;;;;;;;;;;;;1.87;91.28;94229.76;106841;1274;22503;-78
2023/12/01 06:03:11;;;;;;;16.80;10.70;;;;;;;1.89;91.34;94236.49;106909;1274;24917;-77
2023/12/01 06:05:41;;;;;;;14.50;8.80;;;;;;;1.91;91.32;94224.17;106842;1273;22521;-78
2023/12/01 06:08:09;;;;;;;7.10;5.00;;;;;;;1.91;91.39;94201.63;106827;1274;24315;-78
2023/12/01 06:10:39;;;;;;;10.80;7.40;;;;;;;1.91;91.03;94203.54;106820;1274;24337;-77
2023/12/01 06:13:07;;;;;;;20.20;10.20;;;;;;;1.89;90.74;94202.16;106763;1275;24288;-77
2023/12/01 06:15:35;;;;;;;12.20;8.00;;;;;;;1.82;90.57;94212.63;106834;1274;22642;-77
2023/12/01 06:18:04;;;;;;;5.40;4.10;;;;;;;1.74;90.71;94217.02;106846;1274;22637;-77
2023/12/01 06:20:34;;;;;;;5.70;4.40;;;;;;;1.68;90.41;94218.27;106847;1275;24215;-77
2023/12/01 06:23:07;;;;;;;6.60;4.50;;;;;;;1.63;90.51;94218.82;106875;1274;22536;-78
2023/12/01 06:25:40;;;;;;;7.50;5.00;;;;;;;1.57;90.45;94225.45;106973;1260;23900;-78
2023/12/01 06:28:10;;;;;;;7.90;5.00;;;;;;;1.52;90.30;94237.42;106680;1274;23140;-77
2023/12/01 06:30:40;;;;;;;8.90;5.40;;;;;;;1.51;90.50;94266.03;106926;1274;24212;-77
2023/12/01 06:33:09;;;;;;;6.60;4.40;;;;;;;1.49;91.00;94246.98;106825;1274;24399;-77
2023/12/01 06:35:38;;;;;;;23.40;12.90;;;;;;;1.38;92.18;94226.60;106804;1273;22566;-77
2023/12/01 06:38:07;;;;;;;18.10;10.60;;;;;;;1.38;91.85;94231.27;106681;1274;24214;-77
2023/12/01 06:40:35;;;;;;;14.00;9.10;;;;;;;1.39;92.31;94226.76;106880;1274;23944;-77
2023/12/01 06:43:09;;;;;;;15.80;8.90;;;;;;;1.43;92.08;94230.73;106849;1273;25258;-78
2023/12/01 06:45:41;;;;;;;12.80;8.20;;;;;;;1.49;92.46;94231.55;106859;1270;22642;-77
2023/12/01 06:48:12;;;;;;;9.70;6.60;;;;;;;1.56;92.37;94229.78;106838;1274;22639;-78
2023/12/01 06:50:41;;;;;;;11.40;6.80;;;;;;;1.62;92.73;94237.20;106881;1263;25337;-77
2023/12/01 06:53:10;;;;;;;8.70;5.70;;;;;;;1.67;92.83;94237.52;106811;1261;24236;-77
2023/12/01 06:55:40;;;;;;;9.80;5.40;;;;;;;1.74;92.64;94240.08;106862;1274;22774;-77
2023/12/01 06:58:09;;;;;;;10.00;6.70;;;;;;;1.77;92.34;94249.94;106689;1262;234259;-77
2023/12/01 07:00:39;;;;;;;9.30;5.70;;;;;;;1.80;92.28;94246.62;106896;1274;25005;-78
2023/12/01 07:03:09;;;;;;;11.00;6.60;;;;;;;1.84;92.34;94238.96;106792;1274;22523;-77
2023/12/01 07:05:40;;;;;;;6.60;4.70;;;;;;;1.96;92.76;94239.92;106905;1274;25242;-78
2023/12/01 07:08:12;;;;;;;6.40;4.80;;;;;;;2.03;92.29;94237.97;106868;1263;24228;-78
2023/12/01 07:10:44;;;;;;;10.20;7.40;;;;;;;2.04;91.99;94240.20;106845;1274;24472;-78
2023/12/01 07:13:13;;;;;;;8.20;5.30;;;;;;;2.10;92.44;94257.67;106888;1274;25337;-77
2023/12/01 07:15:41;;;;;;;6.30;4.60;;;;;;;2.19;92.66;94254.48;106769;1274;22542;-78
2023/12/01 07:18:10;;;;;;;9.40;5.60;;;;;;;2.24;92.70;94241.43;106673;1274;22523;-78
2023/12/01 07:20:39;;;;;;;9.80;7.00;;;;;;;2.27;92.41;94249.04;106894;1274;22646;-77
2023/12/01 07:23:07;;;;;;;17.20;12.10;;;;;;;2.28;92.23;94244.52;106871;1274;22775;-78
2023/12/01 07:25:36;;;;;;;20.30;14.30;;;;;;;2.31;92.29;94247.96;106829;1274;22637;-78
2023/12/01 07:28:06;;;;;;;25.70;17.50;;;;;;;2.40;92.73;94243.20;106891;1274;25989;-78
2023/12/01 07:30:34;;;;;;;39.80;29.10;;;;;;;2.40;92.37;94249.10;106720;1274;25367;-79
2023/12/01 07:33:06;;;;;;;42.30;27.90;;;;;;;2.44;92.77;94243.68;106843;1274;22622;-78
2023/12/01 07:35:34;;;;;;;47.60;30.90;;;;;;;2.49;92.70;94245.20;106828;1274;25571;-78
2023/12/01 07:38:04;;;;;;;72.30;38.70;;;;;;;2.50;92.73;94233.91;106804;1274;22607;-77
2023/12/01 07:40:33;;;;;;;59.40;29.30;;;;;;;2.55;92.63;94237.50;106906;1274;22776;-77
2023/12/01 07:43:05;;;;;;;75.80;42.40;;;;;;;2.65;92.76;94236.71;106849;1273;22543;-78
2023/12/01 07:45:34;;;;;;;40.30;27.20;;;;;;;2.73;92.73;94234.91;106814;1273;25291;-78
2023/12/01 07:48:03;;;;;;;41.40;26.90;;;;;;;2.78;92.43;94216.44;106874;1274;24470;-78
2023/12/01 07:50:32;;;;;;;51.10;33.50;;;;;;;2.80;91.91;94225.11;106772;1274;22769;-78
2023/12/01 07:53:04;;;;;;;61.20;36.80;;;;;;;2.81;91.89;94221.79;106807;1274;22655;-78
2023/12/01 07:55:33;;;;;;;58.80;38.80;;;;;;;2.86;92.08;94220.69;106804;1274;22765;-78
2023/12/01 07:58:01;;;;;;;42.50;23.60;;;;;;;2.92;92.73;94217.31;106848;1273;24275;-78
2023/12/01 08:00:30;;;;;;;71.50;37.60;;;;;;;3.00;92.67;94213.59;106811;1273;22514;-78
2023/12/01 08:02:58;;;;;;;74.50;38.70;;;;;;;3.09;92.85;94206.00;106830;1274;22521;-77
2023/12/01 08:05:26;;;;;;;20.30;12.40;;;;;;;3.18;92.75;94211.63;106779;1274;25443;-78
2023/12/01 08:07:54;;;;;;;33.20;17.70;;;;;;;3.24;93.08;94206.86;106791;1274;23012;-79
2023/12/01 08:10:27;;;;;;;54.00;28.90;;;;;;;3.36;93.56;94222.00;106834;1274;22535;-77
2023/12/01 08:12:59;;;;;;;31.00;20.30;;;;;;;3.47;93.37;94211.26;106818;1273;22516;-78
2023/12/01 08:15:28;;;;;;;19.00;12.50;;;;;;;3.49;92.89;94213.13;106861;1273;24336;-77
2023/12/01 08:17:59;;;;;;;16.40;12.20;;;;;;;3.55;92.94;94208.01;106738;1251;25496;-78
2023/12/01 08:20:29;;;;;;;14.40;10.60;;;;;;;3.59;92.89;94213.16;106756;1274;24211;-78
2023/12/01 08:22:58;;;;;;;15.70;12.10;;;;;;;3.61;92.73;94201.50;106819;1273;22523;-77
2023/12/01 08:25:27;;;;;;;16.30;12.30;;;;;;;3.64;92.78;94203.53;106811;1274;24231;-78
2023/12/01 08:27:57;;;;;;;17.70;13.90;;;;;;;3.72;93.03;94199.09;106781;1274;22531;-77
2023/12/01 08:38:14;;;;;;;13.60;10.30;;;;;;;3.94;93.05;94191.96;103590;1308;545055;-76
2023/12/01 08:40:42;;;;;;;8.00;6.20;;;;;;;3.97;92.86;94185.13;105940;1289;22665;-77
2023/12/01 08:43:11;;;;;;;8.30;6.80;;;;;;;4.05;93.42;94177.86;105967;1289;23034;-79
2023/12/01 08:45:39;;;;;;;11.40;7.00;;;;;;;4.15;93.74;94171.09;105920;1289;26703;-77
2023/12/01 08:48:08;;;;;;;8.70;6.50;;;;;;;4.26;93.91;94177.16;106644;1280;25539;-77
2023/12/01 08:50:36;;;;;;;9.90;7.00;;;;;;;4.37;93.92;94168.79;106218;1280;22584;-77
2023/12/01 08:53:07;;;;;;;12.20;8.40;;;;;;;4.45;93.89;94171.27;106352;1277;25334;-78
2023/12/01 08:55:35;;;;;;;12.20;8.50;;;;;;;4.47;94.22;94178.71;106484;1278;24077;-78
2023/12/01 08:58:03;;;;;;;17.20;10.60;;;;;;;4.49;93.99;94183.04;106499;1277;25021;-78
2023/12/01 09:00:31;;;;;;;7.80;6.10;;;;;;;4.51;93.84;94191.35;106600;1273;22546;-78
2023/12/01 09:02:59;;;;;;;10.10;6.90;;;;;;;4.57;93.79;94185.85;106737;1277;25405;-78
2023/12/01 09:05:29;;;;;;;8.00;5.70;;;;;;;4.67;94.03;94185.48;106710;1277;25294;-79
2023/12/01 09:07:57;;;;;;;7.40;5.40;;;;;;;4.78;94.12;94188.25;106785;1277;24381;-78
2023/12/01 09:10:26;;;;;;;9.50;6.10;;;;;;;4.88;93.98;94176.89;106463;1277;22534;-79
2023/12/01 09:12:54;;;;;;;10.70;7.20;;;;;;;4.97;94.22;94181.27;106696;1277;22712;-78
2023/12/01 09:15:22;;;;;;;8.30;5.80;;;;;;;5.06;94.12;94176.90;106710;1277;22660;-78
2023/12/01 09:17:54;;;;;;;9.30;5.60;;;;;;;5.10;93.65;94168.80;106492;1277;23152;-78
2023/12/01 09:20:22;;;;;;;7.50;5.50;;;;;;;5.08;93.82;94156.98;106505;1278;24267;-78
2023/12/01 09:22:50;;;;;;;6.20;4.10;;;;;;;5.14;93.88;94154.25;106550;1277;25307;-79
2023/12/01 09:25:18;;;;;;;7.70;5.00;;;;;;;5.18;93.93;94143.53;106700;1275;24372;-78
2023/12/01 09:27:47;;;;;;;19.70;12.10;;;;;;;5.23;93.76;94137.66;106850;1253;22569;-78
2023/12/01 09:30:16;;;;;;;13.50;7.00;;;;;;;5.27;93.72;94137.95;106803;1275;22759;-78
2023/12/01 09:32:46;;;;;;;4.50;3.70;;;;;;;5.40;94.19;94134.70;106672;1275;24365;-78
2023/12/01 09:35:15;;;;;;;3.80;3.00;;;;;;;5.53;94.31;94138.23;106524;1275;22642;-77
2023/12/01 09:38:04;;;;;;;5.10;3.20;;;;;;;5.58;93.60;94140.05;106772;1275;22530;-77
2023/12/01 09:40:40;;;;;;;4.40;3.10;;;;;;;5.60;93.51;94137.73;106647;1275;22535;-78
2023/12/01 09:43:09;;;;;;;4.60;2.80;;;;;;;5.66;93.55;94137.59;106896;1275;24275;-78
2023/12/01 09:45:37;;;;;;;11.90;10.10;;;;;;;5.75;93.33;94130.21;106630;1275;22545;-77
2023/12/01 09:48:08;;;;;;;24.70;13.70;;;;;;;5.83;93.08;94129.52;106637;1275;22799;-78
2023/12/01 09:50:37;;;;;;;8.70;6.50;;;;;;;5.97;93.53;94119.60;106653;1275;22534;-77
2023/12/01 09:53:05;;;;;;;12.90;7.30;;;;;;;6.24;93.88;94111.95;106717;1275;25308;-77
2023/12/01 09:55:35;;;;;;;6.20;4.80;;;;;;;6.52;93.47;94106.67;106827;1275;24254;-77
2023/12/01 09:58:04;;;;;;;5.20;4.00;;;;;;;6.79;93.22;94092.48;106739;1275;25389;-77
2023/12/01 10:00:32;;;;;;;27.30;14.90;;;;;;;6.97;92.22;94096.16;106606;1275;24273;-77
2023/12/01 10:03:01;;;;;;;5.60;4.50;;;;;;;7.23;92.12;94085.29;106788;1275;22516;-76
2023/12/01 10:05:33;;;;;;;10.20;6.50;;;;;;;7.42;91.48;94071.94;106874;1275;24386;-77
2023/12/01 10:08:01;;;;;;;9.70;5.90;;;;;;;7.59;91.60;94070.89;106626;1261;25930;-78
2023/12/01 10:10:29;;;;;;;10.40;5.60;;;;;;;7.72;91.52;94072.89;106607;1275;24372;-77
2023/12/01 10:12:58;;;;;;;5.90;4.20;;;;;;;7.75;91.43;94062.31;106605;1275;22819;-77
2023/12/01 10:15:27;;;;;;;6.40;3.90;;;;;;;7.82;91.87;94059.30;106657;1275;25583;-77
2023/12/01 10:18:11;;;;;;;6.70;3.00;;;;;;;7.89;92.31;94058.71;106662;1275;24408;-76
2023/12/01 10:20:55;;;;;;;8.00;5.30;;;;;;;8.26;94.70;94064.30;106600;1275;22642;-77
2023/12/01 10:23:24;;;;;;;7.30;4.40;;;;;;;8.48;93.69;94058.67;106629;1275;23287;-77
2023/12/01 10:25:53;;;;;;;7.40;4.70;;;;;;;8.64;93.02;94055.82;106599;1275;24263;-77
2023/12/01 10:28:22;;;;;;;3.50;2.00;;;;;;;8.87;93.16;94053.08;106545;1275;22641;-77
2023/12/01 10:30:59;;;;;;;3.50;2.70;;;;;;;9.28;94.17;94051.88;106652;1275;25526;-76
2023/12/01 10:33:31;;;;;;;5.20;2.40;;;;;;;9.70;94.00;94047.42;106560;1275;22528;-76
2023/12/01 10:36:08;;;;;;;2.60;1.60;;;;;;;10.12;93.50;94046.98;106639;1275;22508;-77
2023/12/01 10:38:37;;;;;;;2.10;1.40;;;;;;;10.44;92.90;94041.27;106592;1275;25629;-77
2023/12/01 10:41:06;;;;;;;4.10;2.20;;;;;;;10.68;92.78;94041.27;106890;1275;22534;-79
2023/12/01 10:43:35;;;;;;;4.50;2.30;;;;;;;10.91;91.98;94035.51;106784;1275;25242;-78
2023/12/01 10:46:05;;;;;;;2.00;1.30;;;;;;;11.03;91.66;94038.66;106674;1275;25307;-77
2023/12/01 10:48:34;;;;;;;5.00;1.30;;;;;;;11.08;90.71;94046.19;106615;1275;22550;-78
2023/12/01 10:51:04;;;;;;;2.80;1.20;;;;;;;11.12;90.26;94045.30;106553;1275;22528;-80
2023/12/01 10:53:34;;;;;;;5.80;1.30;;;;;;;11.17;88.70;94041.20;106640;1275;25151;-79
2023/12/01 10:56:10;;;;;;;2.00;1.60;;;;;;;11.24;88.18;94035.94;106699;1275;22535;-77
2023/12/01 10:58:39;;;;;;;2.30;1.20;;;;;;;11.31;88.65;94030.53;106644;1275;22537;-79
2023/12/01 11:01:07;;;;;;;8.30;2.20;;;;;;;11.35;88.24;94031.55;106603;1275;22517;-77
2023/12/01 11:03:40;;;;;;;3.00;1.30;;;;;;;11.44;87.21;94029.89;106764;1275;24254;-78
2023/12/01 11:06:29;;;;;;;11.20;1.60;;;;;;;11.54;87.26;94027.70;107012;1275;22532;-81
2023/12/01 11:09:20;;;;;;;1.20;1.10;;;;;;;11.60;85.55;94021.75;106683;1275;22694;-77
2023/12/01 11:12:05;;;;;;;2.10;1.00;;;;;;;11.60;85.30;94024.90;106630;1275;23888;-78
2023/12/01 11:14:36;;;;;;;2.00;1.10;;;;;;;11.58;85.64;94035.04;106630;1275;22597;-82
2023/12/01 11:17:06;;;;;;;1.50;0.90;;;;;;;11.55;85.75;94025.17;106584;1275;25320;-80
2023/12/01 11:19:38;;;;;;;3.40;1.00;;;;;;;11.50;86.30;94025.56;106682;1275;24392;-78
2023/12/01 11:22:27;;;;;;;3.00;1.30;;;;;;;11.43;86.21;94028.70;106583;1275;25578;-80
2023/12/01 11:24:56;;;;;;;0.70;0.60;;;;;;;11.38;86.40;94030.17;106703;1275;22531;-80
2023/12/01 11:27:26;;;;;;;2.20;1.00;;;;;;;11.41;86.25;94041.15;106569;1275;25669;-78
2023/12/01 11:30:06;;;;;;;1.70;0.90;;;;;;;11.46;86.18;94042.82;106651;1275;24379;-78
2023/12/01 11:32:40;;;;;;;1.00;0.90;;;;;;;11.51;86.19;94038.58;106649;1275;22530;-77
2023/12/01 11:35:10;;;;;;;3.60;1.30;;;;;;;11.57;85.60;94046.72;106648;1275;22615;-78
2023/12/01 11:38:05;;;;;;;1.50;1.00;;;;;;;11.65;84.92;94041.95;106561;1275;25429;-77
2023/12/01 11:40:40;;;;;;;1.70;1.10;;;;;;;11.67;85.11;94056.25;106607;1275;22527;-79
2023/12/01 11:43:11;;;;;;;2.90;1.80;;;;;;;11.76;84.49;94041.95;106617;1275;22523;-78
2023/12/01 11:45:49;;;;;;;4.00;2.30;;;;;;;11.77;84.69;94044.90;106700;1275;25249;-82
2023/12/01 11:48:17;;;;;;;2.20;1.80;;;;;;;11.73;84.67;94023.92;106677;1265;22660;-80
2023/12/01 11:50:46;;;;;;;2.80;1.40;;;;;;;11.70;84.79;94027.25;106571;1275;25263;-79